createdAt,value
2019-03-17T00:00:23.151Z,13.66
2019-03-17T00:01:23.139Z,13.51
2019-03-17T00:02:23.189Z,13.39
2019-03-17T00:03:23.125Z,13.33
2019-03-17T00:04:31.370Z,13.29
2019-03-17T00:05:47.909Z,13.29
2019-03-17T00:06:47.900Z,13.33
2019-03-17T00:07:48.042Z,13.22
2019-03-17T00:08:47.883Z,13.24
2019-03-17T00:09:47.875Z,13.21
2019-03-17T00:10:47.864Z,13.18
2019-03-17T00:11:47.852Z,13.15
2019-03-17T00:12:47.842Z,13.25
2019-03-17T00:13:47.879Z,13.21
2019-03-17T00:14:47.819Z,13.33
2019-03-17T00:15:47.809Z,13.46
2019-03-17T00:16:47.799Z,13.57
2019-03-17T00:17:47.790Z,13.68
2019-03-17T00:18:47.785Z,13.76
2019-03-17T00:19:47.869Z,13.75
2019-03-17T00:20:47.762Z,13.72
2019-03-17T00:21:47.743Z,13.70
2019-03-17T00:22:47.744Z,13.69
2019-03-17T00:23:47.725Z,13.78
2019-03-17T00:24:47.722Z,13.75
2019-03-17T00:25:47.856Z,13.58
2019-03-17T00:26:47.693Z,13.66
2019-03-17T00:27:47.683Z,13.66
2019-03-17T00:28:47.672Z,13.64
2019-03-17T00:29:47.662Z,13.75
2019-03-17T00:30:47.652Z,13.78
2019-03-17T00:31:47.700Z,13.78
2019-03-17T00:32:47.635Z,13.76
2019-03-17T00:33:47.621Z,13.87
2019-03-17T00:34:47.611Z,14.09
2019-03-17T00:35:47.605Z,14.37
2019-03-17T00:36:47.590Z,14.44
2019-03-17T00:37:47.679Z,14.56
2019-03-17T00:38:47.574Z,14.57
2019-03-17T00:39:48.948Z,14.68
2019-03-17T00:40:47.545Z,14.57
2019-03-17T00:41:47.535Z,14.60
2019-03-17T00:42:47.532Z,14.50
2019-03-17T00:43:47.775Z,14.42
2019-03-17T00:44:47.503Z,14.52
2019-03-17T00:45:47.494Z,14.52
2019-03-17T00:46:47.480Z,14.57
2019-03-17T00:47:47.473Z,14.69
2019-03-17T00:48:47.463Z,14.79
2019-03-17T00:49:47.550Z,14.67
2019-03-17T00:50:48.977Z,14.61
2019-03-17T00:51:47.434Z,14.65
2019-03-17T00:52:47.420Z,14.56
2019-03-17T00:53:47.407Z,14.67
2019-03-17T00:54:47.407Z,14.61
2019-03-17T00:55:47.443Z,14.62
2019-03-17T00:56:47.392Z,14.86
2019-03-17T00:57:47.373Z,14.80
2019-03-17T00:58:47.358Z,14.68
2019-03-17T00:59:47.346Z,14.49
2019-03-17T01:00:47.338Z,14.39
2019-03-17T01:01:47.477Z,14.44
2019-03-17T01:02:47.313Z,14.56
2019-03-17T01:03:47.304Z,14.37
2019-03-17T01:04:55.744Z,14.60
2019-03-17T01:06:12.097Z,15.63
2019-03-17T01:07:12.192Z,16.19
2019-03-17T01:08:12.074Z,16.59
2019-03-17T01:09:12.063Z,16.95
2019-03-17T01:10:12.053Z,17.26
2019-03-17T01:11:12.039Z,17.40
2019-03-17T01:12:12.030Z,17.51
2019-03-17T01:13:12.069Z,17.57
2019-03-17T01:14:12.006Z,17.68
2019-03-17T01:15:11.999Z,17.70
2019-03-17T01:16:11.989Z,17.61
2019-03-17T01:17:11.983Z,17.61
2019-03-17T01:18:11.967Z,17.41
2019-03-17T01:19:12.111Z,16.93
2019-03-17T01:20:11.945Z,16.59
2019-03-17T01:21:11.939Z,16.22
2019-03-17T01:22:11.924Z,15.88
2019-03-17T01:23:11.918Z,15.74
2019-03-17T01:24:11.903Z,15.68
2019-03-17T01:25:11.943Z,15.70
2019-03-17T01:26:11.878Z,15.66
2019-03-17T01:27:11.869Z,15.74
2019-03-17T01:28:11.860Z,15.74
2019-03-17T01:29:11.849Z,15.75
2019-03-17T01:30:11.836Z,15.78
2019-03-17T01:31:11.929Z,15.76
2019-03-17T01:32:11.819Z,15.82
2019-03-17T01:33:11.810Z,15.75
2019-03-17T01:34:11.794Z,15.88
2019-03-17T01:35:11.783Z,16.18
2019-03-17T01:36:11.775Z,16.37
2019-03-17T01:37:12.019Z,16.55
2019-03-17T01:38:11.753Z,16.66
2019-03-17T01:39:11.740Z,16.66
2019-03-17T01:40:11.731Z,16.67
2019-03-17T01:41:11.717Z,16.47
2019-03-17T01:42:11.708Z,16.37
2019-03-17T01:43:11.753Z,16.34
2019-03-17T01:44:11.688Z,16.29
2019-03-17T01:45:11.684Z,16.04
2019-03-17T01:46:11.666Z,15.93
2019-03-17T01:47:11.660Z,15.89
2019-03-17T01:48:11.650Z,15.70
2019-03-17T01:49:11.689Z,15.49
2019-03-17T01:50:11.626Z,15.37
2019-03-17T01:51:11.614Z,15.29
2019-03-17T01:52:11.606Z,15.22
2019-03-17T01:53:11.589Z,15.29
2019-03-17T01:54:11.581Z,15.41
2019-03-17T01:55:11.721Z,15.37
2019-03-17T01:56:11.556Z,15.42
2019-03-17T01:57:11.548Z,15.38
2019-03-17T01:58:11.541Z,15.34
2019-03-17T01:59:11.526Z,15.23
2019-03-17T02:00:11.517Z,15.05
2019-03-17T02:01:12.008Z,15.10
2019-03-17T02:02:11.494Z,15.04
2019-03-17T02:03:11.484Z,15.10
2019-03-17T02:04:11.476Z,15.11
2019-03-17T02:05:21.544Z,15.08
2019-03-17T02:06:36.316Z,14.83
2019-03-17T02:07:36.304Z,14.77
2019-03-17T02:08:36.296Z,14.85
2019-03-17T02:09:36.280Z,14.69
2019-03-17T02:10:36.283Z,14.71
2019-03-17T02:11:36.715Z,14.79
2019-03-17T02:12:36.255Z,14.75
2019-03-17T02:13:36.244Z,14.80
2019-03-17T02:14:36.226Z,14.80
2019-03-17T02:15:36.230Z,14.90
2019-03-17T02:16:36.215Z,14.83
2019-03-17T02:17:36.302Z,14.83
2019-03-17T02:18:36.188Z,14.87
2019-03-17T02:19:36.178Z,14.83
2019-03-17T02:20:36.169Z,14.86
2019-03-17T02:21:36.157Z,14.77
2019-03-17T02:22:36.149Z,14.68
2019-03-17T02:23:36.190Z,14.67
2019-03-17T02:24:36.124Z,14.80
2019-03-17T02:25:36.113Z,14.80
2019-03-17T02:26:36.106Z,14.85
2019-03-17T02:27:36.094Z,14.77
2019-03-17T02:28:36.083Z,14.68
2019-03-17T02:29:36.323Z,14.61
2019-03-17T02:30:36.062Z,14.50
2019-03-17T02:31:36.052Z,14.38
2019-03-17T02:32:36.041Z,14.53
2019-03-17T02:33:36.030Z,14.42
2019-03-17T02:34:36.019Z,14.44
2019-03-17T02:35:39.242Z,14.52
2019-03-17T02:36:36.001Z,14.46
2019-03-17T02:37:35.985Z,14.50
2019-03-17T02:38:36.003Z,14.38
2019-03-17T02:39:36.052Z,14.37
2019-03-17T02:40:35.961Z,14.28
2019-03-17T02:41:36.042Z,14.25
2019-03-17T02:42:35.947Z,14.28
2019-03-17T02:43:35.921Z,14.31
2019-03-17T02:44:35.910Z,14.20
2019-03-17T02:45:35.907Z,14.27
2019-03-17T02:46:35.999Z,14.24
2019-03-17T02:47:35.880Z,14.25
2019-03-17T02:48:35.933Z,14.25
2019-03-17T02:49:35.857Z,14.25
2019-03-17T02:50:35.845Z,14.24
2019-03-17T02:51:35.839Z,14.24
2019-03-17T02:52:35.873Z,14.21
2019-03-17T02:53:35.814Z,14.24
2019-03-17T02:54:35.806Z,14.21
2019-03-17T02:55:35.800Z,14.20
2019-03-17T02:56:35.783Z,14.27
2019-03-17T02:57:36.023Z,14.25
2019-03-17T02:58:35.762Z,14.24
2019-03-17T02:59:35.749Z,14.38
2019-03-17T03:00:35.742Z,14.56
2019-03-17T03:01:35.726Z,14.90
2019-03-17T03:02:35.724Z,15.38
2019-03-17T03:03:35.756Z,15.57
2019-03-17T03:04:35.710Z,15.59
2019-03-17T03:05:35.687Z,15.56
2019-03-17T03:06:35.677Z,15.37
2019-03-17T03:07:35.666Z,15.30
2019-03-17T03:08:35.657Z,15.25
2019-03-17T03:09:35.694Z,15.22
2019-03-17T03:10:35.643Z,15.27
2019-03-17T03:11:35.633Z,15.35
2019-03-17T03:12:35.673Z,15.40
2019-03-17T03:13:35.614Z,15.40
2019-03-17T03:14:35.601Z,15.57
2019-03-17T03:15:35.788Z,15.67
2019-03-17T03:16:35.571Z,15.82
2019-03-17T03:17:35.561Z,15.96
2019-03-17T03:18:35.553Z,16.09
2019-03-17T03:19:35.539Z,16.07
2019-03-17T03:20:35.530Z,16.19
2019-03-17T03:21:35.570Z,16.32
2019-03-17T03:22:35.512Z,16.73
2019-03-17T03:23:35.512Z,17.29
2019-03-17T03:24:35.489Z,17.72
2019-03-17T03:25:35.503Z,18.06
2019-03-17T03:26:35.478Z,18.26
2019-03-17T03:27:35.557Z,18.23
2019-03-17T03:28:35.454Z,18.20
2019-03-17T03:29:35.434Z,18.67
2019-03-17T03:30:35.456Z,18.92
2019-03-17T03:31:35.412Z,19.07
2019-03-17T03:32:35.403Z,19.02
2019-03-17T03:33:35.545Z,19.10
2019-03-17T03:34:35.384Z,19.27
2019-03-17T03:35:35.372Z,19.10
2019-03-17T03:36:35.357Z,18.79
2019-03-17T03:37:35.347Z,18.83
2019-03-17T03:38:35.335Z,19.01
2019-03-17T03:39:35.383Z,19.14
2019-03-17T03:40:35.317Z,19.38
2019-03-17T03:41:35.302Z,19.67
2019-03-17T03:42:35.294Z,19.83
2019-03-17T03:43:35.284Z,19.86
2019-03-17T03:44:35.349Z,19.62
2019-03-17T03:45:35.366Z,19.47
2019-03-17T03:46:35.249Z,19.22
2019-03-17T03:47:35.242Z,19.09
2019-03-17T03:48:35.232Z,19.01
2019-03-17T03:49:35.221Z,18.82
2019-03-17T03:50:35.214Z,18.74
2019-03-17T03:51:35.350Z,18.70
2019-03-17T03:52:35.187Z,18.62
2019-03-17T03:53:35.174Z,18.62
2019-03-17T03:54:35.171Z,18.58
2019-03-17T03:55:35.159Z,18.62
2019-03-17T03:56:35.156Z,18.54
2019-03-17T03:57:35.180Z,18.47
2019-03-17T03:58:35.123Z,18.80
2019-03-17T03:59:35.114Z,18.72
2019-03-17T04:00:35.102Z,18.54
2019-03-17T04:01:35.091Z,18.36
2019-03-17T04:02:35.086Z,18.27
2019-03-17T04:03:35.137Z,18.24
2019-03-17T04:04:35.059Z,18.14
2019-03-17T04:05:35.049Z,18.11
2019-03-17T04:06:35.061Z,17.98
2019-03-17T04:07:35.030Z,17.88
2019-03-17T04:08:35.017Z,17.86
2019-03-17T04:09:35.405Z,17.93
2019-03-17T04:10:34.995Z,17.99
2019-03-17T04:11:34.993Z,17.96
2019-03-17T04:12:34.987Z,18.05
2019-03-17T04:13:34.966Z,18.23
2019-03-17T04:14:34.955Z,18.21
2019-03-17T04:15:35.041Z,18.14
2019-03-17T04:16:34.936Z,18.14
2019-03-17T04:17:34.919Z,18.28
2019-03-17T04:18:34.916Z,18.42
2019-03-17T04:19:34.905Z,18.54
2019-03-17T04:20:34.934Z,18.70
2019-03-17T04:21:34.956Z,18.94
2019-03-17T04:22:34.868Z,19.10
2019-03-17T04:23:34.854Z,19.38
2019-03-17T04:24:34.855Z,19.38
2019-03-17T04:25:34.837Z,19.68
2019-03-17T04:26:34.874Z,19.93
2019-03-17T04:27:34.814Z,20.08
2019-03-17T04:28:34.808Z,20.23
2019-03-17T04:29:34.795Z,20.42
2019-03-17T04:30:34.782Z,20.46
2019-03-17T04:31:34.922Z,20.43
2019-03-17T04:32:34.758Z,20.48
2019-03-17T04:33:34.754Z,20.55
2019-03-17T04:34:34.742Z,20.64
2019-03-17T04:35:34.741Z,20.83
2019-03-17T04:36:39.963Z,21.03
2019-03-17T04:37:35.910Z,21.24
2019-03-17T04:38:34.699Z,21.32
2019-03-17T04:39:34.687Z,21.39
2019-03-17T04:40:34.673Z,21.48
2019-03-17T04:41:34.665Z,21.57
2019-03-17T04:42:34.657Z,21.54
2019-03-17T04:43:34.692Z,21.53
2019-03-17T04:44:34.640Z,21.54
2019-03-17T04:45:34.636Z,21.57
2019-03-17T04:46:34.610Z,21.54
2019-03-17T04:47:34.600Z,21.57
2019-03-17T04:48:34.592Z,21.53
2019-03-17T04:49:34.734Z,21.38
2019-03-17T04:50:34.573Z,21.08
2019-03-17T04:51:34.566Z,20.90
2019-03-17T04:52:34.553Z,20.73
2019-03-17T04:53:34.543Z,20.48
2019-03-17T04:54:34.534Z,20.46
2019-03-17T04:55:34.573Z,20.41
2019-03-17T04:56:34.514Z,20.43
2019-03-17T04:57:34.502Z,20.35
2019-03-17T04:58:34.489Z,20.33
2019-03-17T04:59:34.484Z,20.35
2019-03-17T05:00:34.470Z,20.43
2019-03-17T05:01:34.515Z,20.48
2019-03-17T05:02:34.450Z,20.75
2019-03-17T05:03:34.439Z,21.00
2019-03-17T05:04:34.428Z,21.05
2019-03-17T05:05:34.416Z,20.67
2019-03-17T05:06:34.407Z,20.41
2019-03-17T05:07:34.544Z,20.48
2019-03-17T05:08:34.408Z,20.90
2019-03-17T05:09:34.381Z,21.23
2019-03-17T05:10:34.370Z,21.54
2019-03-17T05:11:34.355Z,21.66
2019-03-17T05:12:34.347Z,21.87
2019-03-17T05:13:34.387Z,22.00
2019-03-17T05:14:34.326Z,22.11
2019-03-17T05:15:34.320Z,22.21
2019-03-17T05:16:35.795Z,22.06
2019-03-17T05:17:34.294Z,21.98
2019-03-17T05:18:34.285Z,21.63
2019-03-17T05:19:34.327Z,21.21
2019-03-17T05:20:34.261Z,21.03
2019-03-17T05:21:34.260Z,20.95
2019-03-17T05:22:34.244Z,20.94
2019-03-17T05:23:34.235Z,20.60
2019-03-17T05:24:34.232Z,20.25
2019-03-17T05:25:34.465Z,20.09
2019-03-17T05:26:34.207Z,19.88
2019-03-17T05:27:34.193Z,19.53
2019-03-17T05:28:34.185Z,19.54
2019-03-17T05:29:34.177Z,19.67
2019-03-17T05:30:34.163Z,19.67
2019-03-17T05:31:34.206Z,19.50
2019-03-17T05:32:34.140Z,19.38
2019-03-17T05:33:34.134Z,19.46
2019-03-17T05:34:34.121Z,19.39
2019-03-17T05:35:34.110Z,19.59
2019-03-17T05:36:34.095Z,19.67
2019-03-17T05:37:34.189Z,19.88
2019-03-17T05:38:34.077Z,19.91
2019-03-17T05:39:34.068Z,20.12
2019-03-17T05:40:34.059Z,20.20
2019-03-17T05:41:34.052Z,20.42
2019-03-17T05:42:34.039Z,20.52
2019-03-17T05:43:34.278Z,20.33
2019-03-17T05:44:34.043Z,20.28
2019-03-17T05:45:34.009Z,20.06
2019-03-17T05:46:33.997Z,20.31
2019-03-17T05:47:33.987Z,20.33
2019-03-17T05:48:33.976Z,20.46
2019-03-17T05:49:34.071Z,20.46
2019-03-17T05:50:33.964Z,20.53
2019-03-17T05:51:33.945Z,20.55
2019-03-17T05:52:33.937Z,20.63
2019-03-17T05:53:33.925Z,20.60
2019-03-17T05:54:33.913Z,20.64
2019-03-17T05:55:34.011Z,20.82
2019-03-17T05:56:33.893Z,20.90
2019-03-17T05:57:33.885Z,20.98
2019-03-17T05:58:33.870Z,20.97
2019-03-17T05:59:33.860Z,21.07
2019-03-17T06:00:33.854Z,21.10
2019-03-17T06:01:33.992Z,21.15
2019-03-17T06:02:33.826Z,21.17
2019-03-17T06:03:33.822Z,21.08
2019-03-17T06:04:33.809Z,21.20
2019-03-17T06:05:33.798Z,21.03
2019-03-17T06:06:33.790Z,20.92
2019-03-17T06:07:33.878Z,20.98
2019-03-17T06:08:33.890Z,20.95
2019-03-17T06:09:33.757Z,21.04
2019-03-17T06:10:33.746Z,21.07
2019-03-17T06:11:33.730Z,21.01
2019-03-17T06:12:33.724Z,20.89
2019-03-17T06:13:33.764Z,20.92
2019-03-17T06:14:33.704Z,20.95
2019-03-17T06:15:33.692Z,21.07
2019-03-17T06:16:33.685Z,21.15
2019-03-17T06:17:33.673Z,21.10
2019-03-17T06:18:33.661Z,21.13
2019-03-17T06:19:33.806Z,20.95
2019-03-17T06:20:33.644Z,20.97
2019-03-17T06:21:33.630Z,20.90
2019-03-17T06:22:33.623Z,20.90
2019-03-17T06:23:33.614Z,20.86
2019-03-17T06:24:33.601Z,20.83
2019-03-17T06:25:33.740Z,20.90
2019-03-17T06:26:33.583Z,20.76
2019-03-17T06:27:33.572Z,20.53
2019-03-17T06:28:33.561Z,20.46
2019-03-17T06:29:33.545Z,20.49
2019-03-17T06:30:33.538Z,20.35
2019-03-17T06:31:33.579Z,20.25
2019-03-17T06:32:33.517Z,20.33
2019-03-17T06:33:33.509Z,20.35
2019-03-17T06:34:33.499Z,20.31
2019-03-17T06:35:33.484Z,20.10
2019-03-17T06:36:33.476Z,19.98
2019-03-17T06:37:33.609Z,20.08
2019-03-17T06:38:33.451Z,20.18
2019-03-17T06:39:33.441Z,20.13
2019-03-17T06:40:33.432Z,20.08
2019-03-17T06:41:33.423Z,20.02
2019-03-17T06:42:33.413Z,19.97
2019-03-17T06:43:33.450Z,19.98
2019-03-17T06:44:33.388Z,20.00
2019-03-17T06:45:33.380Z,19.97
2019-03-17T06:46:33.375Z,19.94
2019-03-17T06:47:33.359Z,19.88
2019-03-17T06:48:33.350Z,19.91
2019-03-17T06:49:33.387Z,19.88
2019-03-17T06:50:33.328Z,19.94
2019-03-17T06:51:33.311Z,20.03
2019-03-17T06:52:33.304Z,19.95
2019-03-17T06:53:33.292Z,20.08
2019-03-17T06:54:33.281Z,20.28
2019-03-17T06:55:33.330Z,20.23
2019-03-17T06:56:33.263Z,20.23
2019-03-17T06:57:33.252Z,20.30
2019-03-17T06:58:33.243Z,20.28
2019-03-17T06:59:33.229Z,20.34
2019-03-17T07:00:33.373Z,20.42
2019-03-17T07:01:33.209Z,20.42
2019-03-17T07:02:33.199Z,20.34
2019-03-17T07:03:33.190Z,20.33
2019-03-17T07:04:33.181Z,20.39
2019-03-17T07:05:33.169Z,20.30
2019-03-17T07:06:33.209Z,20.21
2019-03-17T07:07:43.355Z,20.35
2019-03-17T07:08:57.943Z,20.30
2019-03-17T07:09:57.933Z,20.39
2019-03-17T07:10:57.928Z,20.45
2019-03-17T07:11:57.964Z,20.46
2019-03-17T07:12:57.906Z,20.48
2019-03-17T07:13:57.896Z,20.38
2019-03-17T07:14:57.883Z,20.28
2019-03-17T07:15:57.877Z,20.33
2019-03-17T07:16:57.865Z,20.28
2019-03-17T07:17:58.258Z,20.28
2019-03-17T07:18:57.847Z,20.41
2019-03-17T07:19:57.838Z,20.38
2019-03-17T07:20:57.837Z,20.39
2019-03-17T07:21:57.816Z,20.35
2019-03-17T07:22:57.807Z,20.49
2019-03-17T07:23:57.848Z,20.42
2019-03-17T07:24:57.786Z,20.31
2019-03-17T07:25:57.772Z,20.18
2019-03-17T07:26:57.759Z,20.12
2019-03-17T07:27:57.796Z,20.09
2019-03-17T07:28:57.737Z,20.15
2019-03-17T07:29:57.782Z,20.06
2019-03-17T07:30:57.722Z,20.13
2019-03-17T07:31:57.712Z,20.21
2019-03-17T07:32:57.700Z,20.28
2019-03-17T07:33:57.689Z,20.48
2019-03-17T07:34:57.680Z,20.61
2019-03-17T07:35:57.821Z,20.75
2019-03-17T07:36:57.658Z,20.67
2019-03-17T07:37:57.652Z,20.68
2019-03-17T07:38:57.641Z,20.75
2019-03-17T07:39:57.626Z,20.70
2019-03-17T07:40:57.619Z,20.64
2019-03-17T07:41:57.711Z,20.65
2019-03-17T07:42:57.600Z,20.60
2019-03-17T07:43:57.588Z,20.63
2019-03-17T07:44:57.580Z,20.67
2019-03-17T07:45:57.566Z,20.63
2019-03-17T07:46:57.560Z,20.53
2019-03-17T07:47:57.598Z,20.52
2019-03-17T07:48:57.539Z,20.50
2019-03-17T07:49:57.527Z,20.46
2019-03-17T07:50:57.516Z,20.55
2019-03-17T07:51:57.535Z,20.58
2019-03-17T07:52:57.495Z,20.55
2019-03-17T07:53:57.637Z,20.70
2019-03-17T07:54:57.476Z,20.76
2019-03-17T07:55:57.463Z,20.80
2019-03-17T07:56:57.455Z,20.82
2019-03-17T07:57:57.446Z,20.78
2019-03-17T07:58:57.436Z,20.71
2019-03-17T07:59:57.528Z,20.58
2019-03-17T08:00:57.415Z,20.64
2019-03-17T08:01:57.400Z,20.52
2019-03-17T08:02:57.393Z,20.39
2019-03-17T08:03:57.386Z,20.43
2019-03-17T08:04:57.373Z,20.35
2019-03-17T08:05:57.409Z,20.41
2019-03-17T08:06:57.367Z,20.39
2019-03-17T08:08:08.803Z,20.27
2019-03-17T08:08:58.433Z,20.48
2019-03-17T08:09:57.337Z,20.49
2019-03-17T08:10:57.307Z,20.55
2019-03-17T08:11:57.403Z,20.55
2019-03-17T08:12:57.291Z,20.61
2019-03-17T08:13:57.282Z,20.67
2019-03-17T08:14:57.888Z,20.60
2019-03-17T08:15:57.265Z,20.43
2019-03-17T08:16:57.253Z,20.38
2019-03-17T08:17:57.288Z,20.27
2019-03-17T08:18:57.231Z,20.15
2019-03-17T08:19:57.220Z,20.08
2019-03-17T08:20:57.240Z,20.06
2019-03-17T08:21:57.201Z,20.15
2019-03-17T08:22:57.193Z,20.31
2019-03-17T08:23:57.227Z,20.25
2019-03-17T08:24:57.182Z,20.27
2019-03-17T08:25:57.159Z,20.31
2019-03-17T08:26:57.154Z,20.34
2019-03-17T08:27:57.139Z,20.41
2019-03-17T08:28:57.279Z,20.33
2019-03-17T08:29:57.116Z,20.46
2019-03-17T08:30:57.106Z,20.50
2019-03-17T08:31:57.098Z,20.43
2019-03-17T08:32:57.098Z,20.38
2019-03-17T08:33:57.079Z,20.20
2019-03-17T08:34:57.166Z,20.08
2019-03-17T08:35:57.056Z,20.21
2019-03-17T08:36:57.047Z,20.34
2019-03-17T08:37:57.034Z,20.52
2019-03-17T08:38:57.033Z,20.55
2019-03-17T08:39:57.015Z,20.61
2019-03-17T08:40:57.104Z,20.78
2019-03-17T08:41:56.992Z,20.79
2019-03-17T08:42:56.979Z,20.85
2019-03-17T08:43:56.969Z,20.86
2019-03-17T08:44:57.054Z,20.80
2019-03-17T08:45:56.948Z,20.64
2019-03-17T08:46:57.093Z,20.78
2019-03-17T08:47:58.567Z,20.85
2019-03-17T08:48:56.919Z,20.89
2019-03-17T08:49:56.918Z,20.98
2019-03-17T08:50:56.913Z,21.03
2019-03-17T08:51:56.895Z,20.89
2019-03-17T08:52:56.981Z,20.75
2019-03-17T08:53:56.872Z,20.64
2019-03-17T08:54:56.860Z,20.64
2019-03-17T08:55:56.847Z,20.70
2019-03-17T08:56:56.844Z,20.64
2019-03-17T08:57:56.824Z,20.75
2019-03-17T08:58:56.921Z,20.88
2019-03-17T08:59:56.810Z,20.90
2019-03-17T09:00:56.796Z,20.98
2019-03-17T09:01:56.790Z,21.15
2019-03-17T09:02:56.780Z,21.17
2019-03-17T09:03:56.766Z,21.12
2019-03-17T09:04:56.913Z,20.92
2019-03-17T09:05:56.755Z,20.89
2019-03-17T09:06:56.732Z,20.92
2019-03-17T09:07:56.729Z,20.90
2019-03-17T09:08:56.723Z,21.00
2019-03-17T09:09:56.704Z,20.89
2019-03-17T09:10:56.748Z,20.97
2019-03-17T09:11:56.687Z,21.05
2019-03-17T09:12:56.677Z,20.98
2019-03-17T09:13:56.668Z,21.00
2019-03-17T09:14:56.657Z,21.10
2019-03-17T09:15:56.700Z,21.20
2019-03-17T09:16:56.638Z,21.17
2019-03-17T09:17:56.624Z,21.15
2019-03-17T09:18:56.614Z,21.21
2019-03-17T09:19:56.601Z,21.21
2019-03-17T09:20:56.590Z,21.21
2019-03-17T09:21:56.831Z,21.29
2019-03-17T09:22:56.573Z,21.36
2019-03-17T09:23:56.566Z,21.34
2019-03-17T09:24:56.551Z,21.17
2019-03-17T09:25:56.542Z,21.10
2019-03-17T09:26:56.531Z,21.00
2019-03-17T09:27:56.571Z,21.04
2019-03-17T09:28:56.513Z,21.07
2019-03-17T09:29:56.508Z,21.23
2019-03-17T09:30:56.488Z,21.20
2019-03-17T09:31:56.482Z,21.17
2019-03-17T09:32:56.468Z,21.27
2019-03-17T09:33:56.507Z,21.38
2019-03-17T09:34:56.464Z,21.36
2019-03-17T09:35:56.443Z,21.45
2019-03-17T09:36:56.430Z,21.53
2019-03-17T09:37:56.414Z,21.50
2019-03-17T09:38:56.414Z,21.57
2019-03-17T09:39:56.448Z,21.61
2019-03-17T09:40:56.387Z,21.71
2019-03-17T09:41:56.376Z,21.69
2019-03-17T09:42:56.366Z,21.63
2019-03-17T09:43:56.358Z,21.51
2019-03-17T09:44:56.493Z,21.48
2019-03-17T09:45:56.331Z,21.42
2019-03-17T09:46:56.332Z,21.30
2019-03-17T09:47:56.315Z,21.34
2019-03-17T09:48:56.304Z,21.19
2019-03-17T09:49:56.296Z,21.27
2019-03-17T09:50:56.336Z,21.32
2019-03-17T09:51:56.271Z,21.23
2019-03-17T09:52:56.267Z,21.30
2019-03-17T09:53:56.255Z,21.45
2019-03-17T09:54:56.240Z,21.41
2019-03-17T09:55:56.233Z,21.60
2019-03-17T09:56:56.275Z,21.54
2019-03-17T09:57:56.212Z,21.59
2019-03-17T09:58:56.199Z,21.57
2019-03-17T09:59:56.192Z,21.67
2019-03-17T10:00:56.181Z,21.76
2019-03-17T10:01:56.171Z,21.71
2019-03-17T10:02:56.211Z,21.63
2019-03-17T10:03:56.150Z,21.63
2019-03-17T10:04:56.138Z,21.71
2019-03-17T10:05:56.131Z,21.56
2019-03-17T10:06:56.119Z,21.54
2019-03-17T10:07:56.107Z,21.59
2019-03-17T10:09:00.379Z,21.60
2019-03-17T10:09:56.087Z,21.57
2019-03-17T10:10:56.078Z,21.57
2019-03-17T10:11:56.069Z,21.44
2019-03-17T10:12:56.062Z,21.44
2019-03-17T10:13:56.194Z,21.46
2019-03-17T10:14:56.037Z,21.39
2019-03-17T10:15:56.022Z,21.38
2019-03-17T10:16:56.018Z,21.34
2019-03-17T10:17:56.006Z,21.32
2019-03-17T10:18:55.996Z,21.20
2019-03-17T10:19:56.035Z,21.32
2019-03-17T10:20:55.975Z,21.34
2019-03-17T10:21:55.963Z,21.42
2019-03-17T10:22:55.953Z,21.56
2019-03-17T10:23:55.944Z,21.67
2019-03-17T10:24:55.933Z,21.60
2019-03-17T10:25:55.974Z,21.66
2019-03-17T10:26:55.910Z,21.50
2019-03-17T10:27:55.903Z,21.39
2019-03-17T10:28:55.889Z,21.32
2019-03-17T10:29:55.876Z,21.23
2019-03-17T10:30:55.968Z,21.34
2019-03-17T10:31:55.857Z,21.35
2019-03-17T10:32:55.844Z,21.36
2019-03-17T10:33:55.839Z,21.36
2019-03-17T10:34:55.822Z,21.39
2019-03-17T10:35:55.813Z,21.45
2019-03-17T10:36:55.910Z,21.50
2019-03-17T10:37:55.795Z,21.56
2019-03-17T10:38:55.785Z,21.53
2019-03-17T10:39:55.775Z,21.48
2019-03-17T10:40:55.762Z,21.38
2019-03-17T10:41:56.162Z,21.35
2019-03-17T10:42:55.744Z,21.32
2019-03-17T10:43:55.737Z,21.46
2019-03-17T10:44:55.721Z,21.42
2019-03-17T10:45:55.708Z,21.39
2019-03-17T10:46:55.708Z,21.44
2019-03-17T10:47:55.745Z,21.44
2019-03-17T10:48:55.679Z,21.41
2019-03-17T10:49:55.669Z,21.42
2019-03-17T10:50:55.654Z,21.46
2019-03-17T10:51:55.645Z,21.36
2019-03-17T10:52:55.651Z,21.35
2019-03-17T10:53:55.677Z,21.39
2019-03-17T10:54:55.616Z,21.19
2019-03-17T10:55:55.611Z,21.21
2019-03-17T10:56:55.597Z,21.23
2019-03-17T10:57:55.586Z,21.35
2019-03-17T10:58:55.577Z,21.32
2019-03-17T10:59:55.718Z,21.32
2019-03-17T11:00:55.555Z,21.34
2019-03-17T11:01:55.546Z,21.36
2019-03-17T11:02:55.533Z,21.36
2019-03-17T11:03:55.523Z,21.42
2019-03-17T11:04:55.515Z,21.38
2019-03-17T11:05:55.552Z,21.38
2019-03-17T11:06:55.491Z,21.35
2019-03-17T11:07:55.479Z,21.34
2019-03-17T11:08:55.476Z,21.27
2019-03-17T11:09:55.462Z,21.34
2019-03-17T11:10:55.551Z,21.34
2019-03-17T11:11:55.442Z,21.39
2019-03-17T11:12:55.433Z,21.34
2019-03-17T11:13:55.418Z,21.30
2019-03-17T11:14:55.410Z,21.34
2019-03-17T11:15:55.546Z,21.30
2019-03-17T11:16:55.384Z,21.35
2019-03-17T11:17:55.379Z,21.30
2019-03-17T11:18:55.381Z,21.39
2019-03-17T11:19:55.360Z,21.39
2019-03-17T11:20:55.348Z,21.36
2019-03-17T11:21:55.434Z,21.34
2019-03-17T11:22:55.322Z,21.23
2019-03-17T11:23:55.313Z,21.19
2019-03-17T11:24:55.304Z,21.12
2019-03-17T11:25:55.291Z,21.10
2019-03-17T11:26:55.822Z,21.08
2019-03-17T11:27:55.318Z,21.12
2019-03-17T11:28:55.264Z,20.97
2019-03-17T11:29:55.249Z,20.94
2019-03-17T11:30:55.242Z,20.88
2019-03-17T11:31:55.228Z,20.88
2019-03-17T11:32:55.219Z,20.76
2019-03-17T11:33:55.357Z,20.76
2019-03-17T11:34:55.201Z,20.79
2019-03-17T11:35:55.182Z,20.86
2019-03-17T11:36:55.180Z,20.82
2019-03-17T11:37:55.166Z,20.85
2019-03-17T11:38:55.158Z,20.85
2019-03-17T11:39:55.250Z,20.85
2019-03-17T11:40:55.136Z,20.76
2019-03-17T11:41:55.124Z,20.80
2019-03-17T11:42:55.114Z,20.79
2019-03-17T11:43:55.102Z,20.73
2019-03-17T11:44:55.142Z,20.79
2019-03-17T11:45:55.090Z,20.70
2019-03-17T11:46:55.075Z,20.78
2019-03-17T11:47:55.063Z,20.79
2019-03-17T11:48:55.052Z,20.73
2019-03-17T11:49:55.044Z,20.80
2019-03-17T11:50:55.132Z,20.82
2019-03-17T11:51:55.020Z,20.78
2019-03-17T11:52:55.020Z,20.73
2019-03-17T11:53:54.999Z,20.68
2019-03-17T11:54:54.990Z,20.63
2019-03-17T11:55:54.974Z,20.55
2019-03-17T11:57:55.007Z,20.58
2019-03-17T11:58:54.947Z,20.50
2019-03-17T11:59:54.939Z,20.55
2019-03-17T12:00:54.926Z,20.42
2019-03-17T12:01:54.914Z,20.42
2019-03-17T12:02:54.922Z,20.45
2019-03-17T12:03:55.012Z,20.33
2019-03-17T12:04:54.887Z,20.33
2019-03-17T12:05:54.877Z,20.31
2019-03-17T12:06:54.866Z,20.31
2019-03-17T12:07:54.857Z,20.21
2019-03-17T12:08:54.844Z,20.25
2019-03-17T12:09:54.889Z,20.15
2019-03-17T12:10:54.831Z,20.21
2019-03-17T12:11:54.811Z,20.12
2019-03-17T12:12:54.803Z,20.15
2019-03-17T12:13:54.793Z,20.09
2019-03-17T12:14:54.782Z,20.12
2019-03-17T12:15:54.825Z,20.09
2019-03-17T12:16:54.760Z,20.00
2019-03-17T12:17:54.753Z,19.98
2019-03-17T12:18:54.742Z,19.90
2019-03-17T12:19:54.727Z,19.84
2019-03-17T12:20:54.717Z,19.86
2019-03-17T12:21:54.764Z,19.83
2019-03-17T12:22:54.695Z,19.80
2019-03-17T12:23:54.686Z,19.78
2019-03-17T12:24:54.680Z,19.79
2019-03-17T12:25:54.672Z,19.75
2019-03-17T12:26:54.656Z,19.76
2019-03-17T12:27:54.697Z,19.72
2019-03-17T12:28:54.636Z,19.69
2019-03-17T12:29:54.625Z,19.67
2019-03-17T12:30:54.616Z,19.57
2019-03-17T12:31:54.606Z,19.52
2019-03-17T12:32:54.592Z,19.42
2019-03-17T12:33:54.690Z,19.42
2019-03-17T12:34:54.575Z,19.50
2019-03-17T12:35:54.559Z,19.41
2019-03-17T12:36:54.549Z,19.38
2019-03-17T12:37:54.539Z,19.37
2019-03-17T12:38:54.529Z,19.32
2019-03-17T12:40:02.460Z,19.32
2019-03-17T12:41:19.324Z,19.31
2019-03-17T12:42:19.313Z,19.30
2019-03-17T12:43:19.300Z,19.24
2019-03-17T12:44:19.289Z,19.23
2019-03-17T12:45:19.327Z,19.16
2019-03-17T12:46:19.267Z,19.17
2019-03-17T12:47:19.261Z,19.14
2019-03-17T12:48:19.249Z,19.12
2019-03-17T12:49:19.241Z,19.09
2019-03-17T12:50:19.224Z,19.02
2019-03-17T12:51:19.268Z,19.09
2019-03-17T12:52:19.202Z,19.05
2019-03-17T12:53:19.196Z,18.87
2019-03-17T12:54:19.187Z,18.90
2019-03-17T12:55:19.183Z,18.73